sensor_id;sensor_type;location;lat;lon;timestamp;pressure;altitude;pressure_sealevel;temperature;humidity
47430;BME280;33181;49.246;7.372;2022-09-03T00:01:22;98347.38;;;18.60;58.30
47430;BME280;33181;49.246;7.372;2022-09-03T00:04:01;98337.31;;;18.55;58.31
47430;BME280;33181;49.246;7.372;2022-09-03T00:06:39;98337.41;;;18.62;58.14
47430;BME280;33181;49.246;7.372;2022-09-03T00:09:41;98340.34;;;18.67;58.15
47430;BME280;33181;49.246;7.372;2022-09-03T00:12:15;98335.75;;;18.75;57.98
47430;BME280;33181;49.246;7.372;2022-09-03T00:15:01;98335.56;;;18.77;57.80
47430;BME280;33181;49.246;7.372;2022-09-03T00:17:41;98338.88;;;18.79;57.99
47430;BME280;33181;49.246;7.372;2022-09-03T00:20:16;98335.94;;;18.74;58.54
47430;BME280;33181;49.246;7.372;2022-09-03T00:22:50;98343.25;;;18.72;58.65
47430;BME280;33181;49.246;7.372;2022-09-03T00:25:36;98336.28;;;18.71;58.86
47430;BME280;33181;49.246;7.372;2022-09-03T00:28:10;98337.78;;;18.73;58.87
47430;BME280;33181;49.246;7.372;2022-09-03T00:30:39;98335.38;;;18.79;58.70
47430;BME280;33181;49.246;7.372;2022-09-03T00:33:22;98342.00;;;18.83;58.64
47430;BME280;33181;49.246;7.372;2022-09-03T00:38:29;98343.06;;;18.88;58.38
47430;BME280;33181;49.246;7.372;2022-09-03T00:41:24;98329.88;;;18.80;58.76
47430;BME280;33181;49.246;7.372;2022-09-03T00:44:20;98344.09;;;18.58;59.41
47430;BME280;33181;49.246;7.372;2022-09-03T00:56:50;98351.06;;;18.44;60.33
47430;BME280;33181;49.246;7.372;2022-09-03T01:07:53;98346.38;;;18.31;60.34
47430;BME280;33181;49.246;7.372;2022-09-03T01:10:56;98345.41;;;18.32;60.71
47430;BME280;33181;49.246;7.372;2022-09-03T01:13:42;98344.75;;;18.30;60.88
47430;BME280;33181;49.246;7.372;2022-09-03T01:16:25;98342.38;;;18.35;60.70
47430;BME280;33181;49.246;7.372;2022-09-03T01:36:50;98339.84;;;17.89;61.94
47430;BME280;33181;49.246;7.372;2022-09-03T01:39:54;98349.56;;;17.82;62.19
47430;BME280;33181;49.246;7.372;2022-09-03T01:46:11;98342.69;;;18.02;61.75
47430;BME280;33181;49.246;7.372;2022-09-03T01:48:51;98344.47;;;18.10;61.64
47430;BME280;33181;49.246;7.372;2022-09-03T01:51:29;98343.91;;;18.15;61.63
47430;BME280;33181;49.246;7.372;2022-09-03T01:54:25;98345.28;;;18.11;62.15
47430;BME280;33181;49.246;7.372;2022-09-03T02:00:21;98346.03;;;18.19;62.07
47430;BME280;33181;49.246;7.372;2022-09-03T02:02:51;98347.78;;;18.27;61.75
47430;BME280;33181;49.246;7.372;2022-09-03T02:05:24;98354.56;;;18.29;61.77
47430;BME280;33181;49.246;7.372;2022-09-03T02:08:08;98351.63;;;18.24;61.63
47430;BME280;33181;49.246;7.372;2022-09-03T02:10:50;98342.81;;;18.24;61.73
47430;BME280;33181;49.246;7.372;2022-09-03T02:13:24;98343.19;;;18.21;62.38
47430;BME280;33181;49.246;7.372;2022-09-03T02:15:52;98346.31;;;18.10;63.50
47430;BME280;33181;49.246;7.372;2022-09-03T02:18:35;98348.47;;;18.06;63.91
47430;BME280;33181;49.246;7.372;2022-09-03T02:21:02;98345.09;;;18.12;63.90
47430;BME280;33181;49.246;7.372;2022-09-03T02:23:28;98348.41;;;18.14;63.69
47430;BME280;33181;49.246;7.372;2022-09-03T02:26:00;98339.16;;;18.10;62.99
47430;BME280;33181;49.246;7.372;2022-09-03T02:28:31;98348.22;;;18.01;63.40
47430;BME280;33181;49.246;7.372;2022-09-03T02:30:57;98347.19;;;18.02;63.59
47430;BME280;33181;49.246;7.372;2022-09-03T02:33:23;98342.53;;;18.04;63.90
47430;BME280;33181;49.246;7.372;2022-09-03T02:35:50;98346.38;;;18.01;65.02
47430;BME280;33181;49.246;7.372;2022-09-03T02:38:24;98341.59;;;17.97;65.18
47430;BME280;33181;49.246;7.372;2022-09-03T02:40:50;98333.53;;;18.05;64.77
47430;BME280;33181;49.246;7.372;2022-09-03T02:43:31;98336.41;;;18.03;63.96
47430;BME280;33181;49.246;7.372;2022-09-03T02:46:05;98336.75;;;18.00;63.62
47430;BME280;33181;49.246;7.372;2022-09-03T02:48:32;98339.88;;;18.04;63.55
47430;BME280;33181;49.246;7.372;2022-09-03T02:50:58;98344.72;;;18.00;64.07
47430;BME280;33181;49.246;7.372;2022-09-03T02:53:24;98336.66;;;17.94;64.45
47430;BME280;33181;49.246;7.372;2022-09-03T02:55:57;98349.75;;;17.95;64.54
47430;BME280;33181;49.246;7.372;2022-09-03T02:58:22;98341.06;;;18.01;64.62
47430;BME280;33181;49.246;7.372;2022-09-03T03:00:48;98352.16;;;18.05;64.61
47430;BME280;33181;49.246;7.372;2022-09-03T03:03:14;98348.00;;;18.02;64.81
47430;BME280;33181;49.246;7.372;2022-09-03T03:05:55;98346.38;;;18.01;64.84
47430;BME280;33181;49.246;7.372;2022-09-03T03:08:26;98334.56;;;18.04;64.27
47430;BME280;33181;49.246;7.372;2022-09-03T03:10:56;98342.34;;;18.05;64.11
47430;BME280;33181;49.246;7.372;2022-09-03T03:13:24;98340.84;;;18.03;63.58
47430;BME280;33181;49.246;7.372;2022-09-03T03:15:50;98343.66;;;18.10;63.45
47430;BME280;33181;49.246;7.372;2022-09-03T03:18:16;98339.97;;;18.11;63.58
47430;BME280;33181;49.246;7.372;2022-09-03T03:20:42;98345.75;;;18.14;63.68
47430;BME280;33181;49.246;7.372;2022-09-03T03:23:09;98354.16;;;18.03;64.20
47430;BME280;33181;49.246;7.372;2022-09-03T03:25:37;98358.19;;;17.99;64.12
47430;BME280;33181;49.246;7.372;2022-09-03T03:28:04;98355.72;;;17.97;64.19
47430;BME280;33181;49.246;7.372;2022-09-03T03:30:31;98356.19;;;18.01;64.35
47430;BME280;33181;49.246;7.372;2022-09-03T03:32:58;98364.41;;;17.91;64.54
47430;BME280;33181;49.246;7.372;2022-09-03T03:35:24;98359.56;;;17.95;64.46
47430;BME280;33181;49.246;7.372;2022-09-03T03:37:50;98360.75;;;17.92;64.91
47430;BME280;33181;49.246;7.372;2022-09-03T03:40:16;98364.47;;;17.83;65.10
47430;BME280;33181;49.246;7.372;2022-09-03T03:42:42;98369.31;;;17.79;65.43
47430;BME280;33181;49.246;7.372;2022-09-03T03:45:08;98368.66;;;17.77;65.81
47430;BME280;33181;49.246;7.372;2022-09-03T03:47:35;98369.00;;;17.74;66.45
47430;BME280;33181;49.246;7.372;2022-09-03T03:50:01;98365.59;;;17.66;68.76
47430;BME280;33181;49.246;7.372;2022-09-03T03:52:27;98370.63;;;17.60;69.36
47430;BME280;33181;49.246;7.372;2022-09-03T03:54:53;98366.19;;;17.53;70.77
47430;BME280;33181;49.246;7.372;2022-09-03T03:57:20;98362.22;;;17.49;70.51
47430;BME280;33181;49.246;7.372;2022-09-03T03:59:46;98369.69;;;17.53;70.65
47430;BME280;33181;49.246;7.372;2022-09-03T04:02:13;98365.66;;;17.57;71.64
47430;BME280;33181;49.246;7.372;2022-09-03T04:04:39;98366.13;;;17.61;71.58
47430;BME280;33181;49.246;7.372;2022-09-03T04:07:05;98373.97;;;17.54;71.24
47430;BME280;33181;49.246;7.372;2022-09-03T04:09:31;98382.13;;;17.53;71.75
47430;BME280;33181;49.246;7.372;2022-09-03T04:11:57;98391.31;;;17.42;74.50
47430;BME280;33181;49.246;7.372;2022-09-03T04:14:23;98397.53;;;17.34;75.51
47430;BME280;33181;49.246;7.372;2022-09-03T04:16:50;98396.19;;;17.30;75.85
47430;BME280;33181;49.246;7.372;2022-09-03T04:19:16;98397.22;;;17.29;76.24
47430;BME280;33181;49.246;7.372;2022-09-03T04:21:42;98415.81;;;17.21;75.34
47430;BME280;33181;49.246;7.372;2022-09-03T04:24:09;98401.13;;;17.10;74.98
47430;BME280;33181;49.246;7.372;2022-09-03T04:26:35;98394.91;;;16.95;76.87
47430;BME280;33181;49.246;7.372;2022-09-03T04:29:08;98402.06;;;16.86;76.59
47430;BME280;33181;49.246;7.372;2022-09-03T04:31:37;98412.53;;;16.88;76.20
47430;BME280;33181;49.246;7.372;2022-09-03T04:34:03;98418.31;;;16.83;76.49
47430;BME280;33181;49.246;7.372;2022-09-03T04:36:31;98417.88;;;16.72;76.37
47430;BME280;33181;49.246;7.372;2022-09-03T04:38:59;98411.94;;;16.53;77.02
47430;BME280;33181;49.246;7.372;2022-09-03T04:41:28;98420.59;;;16.39;77.49
47430;BME280;33181;49.246;7.372;2022-09-03T04:43:57;98415.28;;;16.39;78.07
47430;BME280;33181;49.246;7.372;2022-09-03T04:46:26;98416.78;;;16.41;78.67
47430;BME280;33181;49.246;7.372;2022-09-03T04:48:54;98409.00;;;16.40;79.58
47430;BME280;33181;49.246;7.372;2022-09-03T04:51:24;98396.91;;;16.37;81.29
47430;BME280;33181;49.246;7.372;2022-09-03T04:54:00;98387.28;;;16.44;82.11
47430;BME280;33181;49.246;7.372;2022-09-03T04:56:29;98391.56;;;16.54;82.57
47430;BME280;33181;49.246;7.372;2022-09-03T04:59:02;98384.91;;;16.58;82.67
47430;BME280;33181;49.246;7.372;2022-09-03T05:01:31;98394.53;;;16.59;82.53
47430;BME280;33181;49.246;7.372;2022-09-03T05:03:58;98382.31;;;16.41;82.82
47430;BME280;33181;49.246;7.372;2022-09-03T05:06:26;98373.91;;;16.13;84.80
47430;BME280;33181;49.246;7.372;2022-09-03T05:08:54;98369.63;;;16.12;85.87
47430;BME280;33181;49.246;7.372;2022-09-03T05:11:20;98360.53;;;16.07;87.55
47430;BME280;33181;49.246;7.372;2022-09-03T05:13:49;98368.28;;;16.16;88.04
47430;BME280;33181;49.246;7.372;2022-09-03T05:16:16;98361.47;;;16.30;87.65
47430;BME280;33181;49.246;7.372;2022-09-03T05:18:42;98362.44;;;16.37;87.65
47430;BME280;33181;49.246;7.372;2022-09-03T05:21:12;98362.91;;;16.49;87.60
47430;BME280;33181;49.246;7.372;2022-09-03T05:23:43;98371.56;;;16.43;88.01
47430;BME280;33181;49.246;7.372;2022-09-03T05:26:17;98377.34;;;16.47;88.41
47430;BME280;33181;49.246;7.372;2022-09-03T05:28:44;98383.78;;;16.52;88.47
47430;BME280;33181;49.246;7.372;2022-09-03T05:31:16;98386.72;;;16.57;88.69
47430;BME280;33181;49.246;7.372;2022-09-03T05:33:51;98377.47;;;16.53;89.61
47430;BME280;33181;49.246;7.372;2022-09-03T05:36:21;98383.06;;;16.66;89.50
47430;BME280;33181;49.246;7.372;2022-09-03T05:38:51;98387.69;;;16.73;89.26
47430;BME280;33181;49.246;7.372;2022-09-03T05:41:21;98390.34;;;16.73;89.22
47430;BME280;33181;49.246;7.372;2022-09-03T05:43:50;98391.69;;;16.68;89.29
47430;BME280;33181;49.246;7.372;2022-09-03T05:46:29;98388.91;;;16.54;90.36
47430;BME280;33181;49.246;7.372;2022-09-03T05:49:00;98379.44;;;16.59;89.98
47430;BME280;33181;49.246;7.372;2022-09-03T05:51:27;98385.41;;;16.61;90.14
47430;BME280;33181;49.246;7.372;2022-09-03T05:53:54;98386.72;;;16.65;90.33
47430;BME280;33181;49.246;7.372;2022-09-03T05:56:23;98399.94;;;16.74;90.16
47430;BME280;33181;49.246;7.372;2022-09-03T05:58:53;98410.06;;;16.78;90.09
47430;BME280;33181;49.246;7.372;2022-09-03T06:01:24;98408.84;;;16.89;89.97
47430;BME280;33181;49.246;7.372;2022-09-03T06:06:27;98395.25;;;16.92;90.47
47430;BME280;33181;49.246;7.372;2022-09-03T06:09:02;98387.06;;;17.02;90.24
47430;BME280;33181;49.246;7.372;2022-09-03T06:11:30;98396.03;;;17.01;90.57
47430;BME280;33181;49.246;7.372;2022-09-03T06:13:59;98398.16;;;17.05;90.36
47430;BME280;33181;49.246;7.372;2022-09-03T06:16:32;98396.16;;;17.07;90.64
47430;BME280;33181;49.246;7.372;2022-09-03T06:18:58;98395.94;;;17.17;90.71
47430;BME280;33181;49.246;7.372;2022-09-03T06:21:24;98393.97;;;17.19;90.74
47430;BME280;33181;49.246;7.372;2022-09-03T06:23:52;98397.09;;;17.23;90.76
47430;BME280;33181;49.246;7.372;2022-09-03T06:26:19;98385.47;;;17.24;90.67
47430;BME280;33181;49.246;7.372;2022-09-03T06:28:46;98379.31;;;17.23;90.63
47430;BME280;33181;49.246;7.372;2022-09-03T06:31:17;98387.94;;;17.25;90.79
47430;BME280;33181;49.246;7.372;2022-09-03T06:33:45;98388.13;;;17.24;90.60
47430;BME280;33181;49.246;7.372;2022-09-03T06:36:15;98390.47;;;17.19;90.54
47430;BME280;33181;49.246;7.372;2022-09-03T06:38:42;98404.44;;;17.12;90.67
47430;BME280;33181;49.246;7.372;2022-09-03T06:41:14;98408.84;;;16.97;91.16
47430;BME280;33181;49.246;7.372;2022-09-03T06:43:48;98418.78;;;16.95;92.31
47430;BME280;33181;49.246;7.372;2022-09-03T06:46:18;98416.13;;;16.95;92.63
47430;BME280;33181;49.246;7.372;2022-09-03T06:48:44;98406.13;;;17.05;92.55
47430;BME280;33181;49.246;7.372;2022-09-03T06:51:17;98396.31;;;17.14;92.34
47430;BME280;33181;49.246;7.372;2022-09-03T06:53:46;98402.75;;;17.20;92.43
47430;BME280;33181;49.246;7.372;2022-09-03T06:56:16;98403.69;;;17.27;92.44
47430;BME280;33181;49.246;7.372;2022-09-03T06:58:45;98405.50;;;17.34;92.17
47430;BME280;33181;49.246;7.372;2022-09-03T07:01:16;98407.09;;;17.44;91.93
47430;BME280;33181;49.246;7.372;2022-09-03T07:03:44;98406.06;;;17.45;91.77
47430;BME280;33181;49.246;7.372;2022-09-03T07:06:16;98415.56;;;17.39;92.49
47430;BME280;33181;49.246;7.372;2022-09-03T07:08:43;98419.84;;;17.48;92.71
47430;BME280;33181;49.246;7.372;2022-09-03T07:11:18;98422.47;;;17.48;92.65
47430;BME280;33181;49.246;7.372;2022-09-03T07:13:47;98411.16;;;17.54;93.12
47430;BME280;33181;49.246;7.372;2022-09-03T07:16:16;98418.06;;;17.64;93.16
47430;BME280;33181;49.246;7.372;2022-09-03T07:18:43;98427.63;;;17.73;93.54
47430;BME280;33181;49.246;7.372;2022-09-03T07:21:16;98415.16;;;17.81;93.57
47430;BME280;33181;49.246;7.372;2022-09-03T07:23:43;98422.56;;;17.86;93.50
47430;BME280;33181;49.246;7.372;2022-09-03T07:26:16;98421.97;;;17.99;93.06
47430;BME280;33181;49.246;7.372;2022-09-03T07:28:43;98418.78;;;18.03;92.51
47430;BME280;33181;49.246;7.372;2022-09-03T07:33:46;98423.56;;;18.08;92.51
47430;BME280;33181;49.246;7.372;2022-09-03T07:36:15;98416.75;;;18.05;92.68
47430;BME280;33181;49.246;7.372;2022-09-03T07:38:43;98415.94;;;18.05;91.89
47430;BME280;33181;49.246;7.372;2022-09-03T07:41:12;98411.28;;;18.07;91.84
47430;BME280;33181;49.246;7.372;2022-09-03T07:43:44;98412.25;;;18.06;92.11
47430;BME280;33181;49.246;7.372;2022-09-03T07:46:15;98419.16;;;18.00;90.19
47430;BME280;33181;49.246;7.372;2022-09-03T07:48:47;98420.44;;;18.04;91.32
47430;BME280;33181;49.246;7.372;2022-09-03T07:51:14;98431.28;;;18.18;91.67
47430;BME280;33181;49.246;7.372;2022-09-03T07:53:40;98430.50;;;18.32;90.80
47430;BME280;33181;49.246;7.372;2022-09-03T07:56:08;98430.69;;;18.45;90.45
47430;BME280;33181;49.246;7.372;2022-09-03T07:58:36;98434.25;;;18.52;88.97
47430;BME280;33181;49.246;7.372;2022-09-03T08:01:13;98437.00;;;18.59;88.11
47430;BME280;33181;49.246;7.372;2022-09-03T08:03:51;98438.78;;;18.67;87.60
47430;BME280;33181;49.246;7.372;2022-09-03T08:06:20;98445.50;;;18.78;85.61
47430;BME280;33181;49.246;7.372;2022-09-03T08:08:46;98444.59;;;18.85;84.93
47430;BME280;33181;49.246;7.372;2022-09-03T08:11:19;98443.06;;;19.27;83.69
47430;BME280;33181;49.246;7.372;2022-09-03T08:13:52;98449.66;;;19.89;82.34
47430;BME280;33181;49.246;7.372;2022-09-03T08:16:18;98448.97;;;20.51;78.05
47430;BME280;33181;49.246;7.372;2022-09-03T08:18:44;98437.22;;;20.74;76.03
47430;BME280;33181;49.246;7.372;2022-09-03T08:21:17;98443.69;;;20.93;75.75
47430;BME280;33181;49.246;7.372;2022-09-03T08:23:46;98445.16;;;20.60;73.71
47430;BME280;33181;49.246;7.372;2022-09-03T08:26:17;98448.91;;;20.73;75.87
47430;BME280;33181;49.246;7.372;2022-09-03T08:28:43;98450.69;;;20.94;73.95
47430;BME280;33181;49.246;7.372;2022-09-03T08:31:19;98453.75;;;20.91;74.50
47430;BME280;33181;49.246;7.372;2022-09-03T08:33:49;98453.25;;;20.80;72.38
47430;BME280;33181;49.246;7.372;2022-09-03T08:36:23;98450.91;;;20.64;73.06
47430;BME280;33181;49.246;7.372;2022-09-03T08:38:51;98461.16;;;20.60;73.99
47430;BME280;33181;49.246;7.372;2022-09-03T08:47:12;98457.00;;;20.51;75.25
47430;BME280;33181;49.246;7.372;2022-09-03T08:50:30;98467.50;;;20.53;75.12
47430;BME280;33181;49.246;7.372;2022-09-03T08:53:22;98467.31;;;20.61;75.13
47430;BME280;33181;49.246;7.372;2022-09-03T08:56:34;98469.84;;;20.69;74.81
47430;BME280;33181;49.246;7.372;2022-09-03T08:59:02;98471.94;;;20.80;75.28
47430;BME280;33181;49.246;7.372;2022-09-03T09:01:48;98476.56;;;20.93;74.93
47430;BME280;33181;49.246;7.372;2022-09-03T09:04:41;98476.25;;;21.10;75.38
47430;BME280;33181;49.246;7.372;2022-09-03T09:10:29;98489.22;;;21.13;76.84
47430;BME280;33181;49.246;7.372;2022-09-03T09:16:55;98492.50;;;21.21;76.18
47430;BME280;33181;49.246;7.372;2022-09-03T09:19:43;98495.09;;;21.43;76.79
47430;BME280;33181;49.246;7.372;2022-09-03T09:22:34;98493.22;;;21.37;74.20
47430;BME280;33181;49.246;7.372;2022-09-03T09:25:12;98494.72;;;21.46;73.88
47430;BME280;33181;49.246;7.372;2022-09-03T09:28:21;98491.84;;;21.41;74.40
47430;BME280;33181;49.246;7.372;2022-09-03T09:30:50;98483.72;;;21.34;73.56
47430;BME280;33181;49.246;7.372;2022-09-03T09:33:18;98495.44;;;21.26;74.20
47430;BME280;33181;49.246;7.372;2022-09-03T09:35:46;98492.31;;;21.16;73.64
47430;BME280;33181;49.246;7.372;2022-09-03T09:38:12;98494.53;;;21.06;72.45
47430;BME280;33181;49.246;7.372;2022-09-03T09:40:44;98497.38;;;21.04;73.26
47430;BME280;33181;49.246;7.372;2022-09-03T09:43:13;98492.81;;;20.98;72.90
47430;BME280;33181;49.246;7.372;2022-09-03T09:45:48;98501.22;;;20.95;74.13
47430;BME280;33181;49.246;7.372;2022-09-03T09:48:26;98505.66;;;20.81;73.25
47430;BME280;33181;49.246;7.372;2022-09-03T09:51:18;98504.13;;;20.66;74.53
47430;BME280;33181;49.246;7.372;2022-09-03T09:53:44;98511.09;;;20.67;75.76
47430;BME280;33181;49.246;7.372;2022-09-03T09:56:24;98501.41;;;20.59;77.48
47430;BME280;33181;49.246;7.372;2022-09-03T09:59:07;98500.63;;;20.65;76.95
47430;BME280;33181;49.246;7.372;2022-09-03T10:01:38;98497.78;;;20.73;77.13
47430;BME280;33181;49.246;7.372;2022-09-03T10:04:24;98498.75;;;20.94;77.11
47430;BME280;33181;49.246;7.372;2022-09-03T10:06:55;98503.53;;;21.05;75.35
47430;BME280;33181;49.246;7.372;2022-09-03T10:09:30;98506.94;;;21.27;77.01
47430;BME280;33181;49.246;7.372;2022-09-03T10:12:27;98510.78;;;21.59;77.10
47430;BME280;33181;49.246;7.372;2022-09-03T10:15:21;98511.59;;;21.53;73.63
47430;BME280;33181;49.246;7.372;2022-09-03T10:21:27;98506.53;;;21.30;75.75
47430;BME280;33181;49.246;7.372;2022-09-03T10:24:50;98508.78;;;21.26;74.29
47430;BME280;33181;49.246;7.372;2022-09-03T10:27:17;98508.16;;;21.24;74.21
47430;BME280;33181;49.246;7.372;2022-09-03T10:29:44;98510.81;;;21.24;76.74
47430;BME280;33181;49.246;7.372;2022-09-03T10:35:17;98500.47;;;21.08;74.45
47430;BME280;33181;49.246;7.372;2022-09-03T10:38:34;98494.13;;;21.09;74.94
47430;BME280;33181;49.246;7.372;2022-09-03T10:41:42;98487.00;;;21.29;74.40
47430;BME280;33181;49.246;7.372;2022-09-03T10:44:57;98485.59;;;21.82;74.14
47430;BME280;33181;49.246;7.372;2022-09-03T10:47:57;98477.41;;;22.50;73.06
47430;BME280;33181;49.246;7.372;2022-09-03T10:50:30;98469.50;;;23.08;68.61
47430;BME280;33181;49.246;7.372;2022-09-03T10:53:46;98467.72;;;23.85;67.00
47430;BME280;33181;49.246;7.372;2022-09-03T10:56:30;98466.41;;;23.94;64.31
47430;BME280;33181;49.246;7.372;2022-09-03T11:05:08;98460.22;;;24.50;63.38
47430;BME280;33181;49.246;7.372;2022-09-03T11:07:47;98466.41;;;24.94;62.95
47430;BME280;33181;49.246;7.372;2022-09-03T11:13:29;98461.78;;;25.38;60.01
47430;BME280;33181;49.246;7.372;2022-09-03T11:16:05;98459.50;;;24.80;61.88
47430;BME280;33181;49.246;7.372;2022-09-03T11:18:54;98466.00;;;24.72;61.31
47430;BME280;33181;49.246;7.372;2022-09-03T11:21:24;98458.59;;;24.68;62.08
47430;BME280;33181;49.246;7.372;2022-09-03T11:24:04;98458.03;;;24.84;61.22
47430;BME280;33181;49.246;7.372;2022-09-03T11:26:32;98462.63;;;24.77;60.68
47430;BME280;33181;49.246;7.372;2022-09-03T11:29:09;98465.91;;;24.61;62.10
47430;BME280;33181;49.246;7.372;2022-09-03T11:32:14;98463.25;;;24.79;61.95
47430;BME280;33181;49.246;7.372;2022-09-03T11:34:50;98458.09;;;24.59;61.81
47430;BME280;33181;49.246;7.372;2022-09-03T11:37:27;98463.63;;;24.83;61.46
47430;BME280;33181;49.246;7.372;2022-09-03T11:42:40;98449.75;;;25.41;58.55
47430;BME280;33181;49.246;7.372;2022-09-03T11:47:54;98447.84;;;25.72;59.07
47430;BME280;33181;49.246;7.372;2022-09-03T11:50:32;98439.22;;;26.11;57.10
47430;BME280;33181;49.246;7.372;2022-09-03T11:53:32;98436.41;;;26.18;56.28
47430;BME280;33181;49.246;7.372;2022-09-03T11:56:16;98441.94;;;26.23;57.13
47430;BME280;33181;49.246;7.372;2022-09-03T11:58:42;98434.56;;;26.30;56.79
47430;BME280;33181;49.246;7.372;2022-09-03T12:01:11;98437.88;;;25.91;57.58
47430;BME280;33181;49.246;7.372;2022-09-03T12:04:00;98436.53;;;25.70;59.92
47430;BME280;33181;49.246;7.372;2022-09-03T12:18:35;98437.44;;;25.75;58.90
47430;BME280;33181;49.246;7.372;2022-09-03T12:21:05;98435.31;;;25.54;58.82
47430;BME280;33181;49.246;7.372;2022-09-03T12:23:46;98435.69;;;25.69;57.82
47430;BME280;33181;49.246;7.372;2022-09-03T12:26:22;98439.81;;;25.41;59.61
47430;BME280;33181;49.246;7.372;2022-09-03T12:28:57;98433.97;;;25.45;59.46
47430;BME280;33181;49.246;7.372;2022-09-03T12:31:30;98432.91;;;25.46;59.05
47430;BME280;33181;49.246;7.372;2022-09-03T12:34:04;98436.69;;;25.26;58.47
47430;BME280;33181;49.246;7.372;2022-09-03T12:36:47;98438.03;;;24.98;60.56
47430;BME280;33181;49.246;7.372;2022-09-03T12:39:20;98440.06;;;25.03;60.13
47430;BME280;33181;49.246;7.372;2022-09-03T12:42:01;98442.81;;;24.78;60.94
47430;BME280;33181;49.246;7.372;2022-09-03T12:44:39;98445.53;;;24.28;62.43
47430;BME280;33181;49.246;7.372;2022-09-03T12:47:15;98444.06;;;23.75;64.02
47430;BME280;33181;49.246;7.372;2022-09-03T12:49:49;98448.59;;;23.75;64.75
47430;BME280;33181;49.246;7.372;2022-09-03T12:55:36;98447.66;;;23.56;65.83
47430;BME280;33181;49.246;7.372;2022-09-03T13:01:12;98450.56;;;23.86;63.83
47430;BME280;33181;49.246;7.372;2022-09-03T13:03:52;98441.19;;;23.70;64.65
47430;BME280;33181;49.246;7.372;2022-09-03T13:06:30;98444.56;;;23.52;66.50
47430;BME280;33181;49.246;7.372;2022-09-03T13:09:04;98435.00;;;23.63;66.15
47430;BME280;33181;49.246;7.372;2022-09-03T13:11:35;98442.41;;;23.74;64.43
47430;BME280;33181;49.246;7.372;2022-09-03T13:14:07;98442.03;;;23.71;65.02
47430;BME280;33181;49.246;7.372;2022-09-03T13:22:28;98436.97;;;23.88;63.51
47430;BME280;33181;49.246;7.372;2022-09-03T13:28:48;98433.81;;;23.59;64.23
47430;BME280;33181;49.246;7.372;2022-09-03T13:31:39;98437.97;;;23.55;65.78
47430;BME280;33181;49.246;7.372;2022-09-03T13:34:22;98431.94;;;23.59;65.14
47430;BME280;33181;49.246;7.372;2022-09-03T13:39:59;98446.31;;;23.33;64.37
47430;BME280;33181;49.246;7.372;2022-09-03T13:42:47;98441.44;;;23.17;65.01
47430;BME280;33181;49.246;7.372;2022-09-03T13:45:30;98439.03;;;23.02;66.00
47430;BME280;33181;49.246;7.372;2022-09-03T13:48:33;98449.13;;;22.87;67.34
47430;BME280;33181;49.246;7.372;2022-09-03T13:51:41;98453.91;;;22.72;68.68
47430;BME280;33181;49.246;7.372;2022-09-03T13:54:35;98469.38;;;22.56;69.88
47430;BME280;33181;49.246;7.372;2022-09-03T13:57:20;98496.75;;;22.25;71.00
47430;BME280;33181;49.246;7.372;2022-09-03T14:12:24;98573.81;;;17.96;84.35
47430;BME280;33181;49.246;7.372;2022-09-03T14:15:07;98573.31;;;18.00;87.79
47430;BME280;33181;49.246;7.372;2022-09-03T14:17:42;98551.16;;;18.08;88.08
47430;BME280;33181;49.246;7.372;2022-09-03T14:20:32;98546.41;;;18.18;87.67
47430;BME280;33181;49.246;7.372;2022-09-03T14:23:39;98542.06;;;18.25;86.95
47430;BME280;33181;49.246;7.372;2022-09-03T14:26:26;98541.28;;;18.40;85.90
47430;BME280;33181;49.246;7.372;2022-09-03T14:29:27;98532.53;;;18.54;86.12
47430;BME280;33181;49.246;7.372;2022-09-03T14:35:22;98517.91;;;18.73;86.28
47430;BME280;33181;49.246;7.372;2022-09-03T14:41:03;98517.72;;;19.34;86.94
47430;BME280;33181;49.246;7.372;2022-09-03T14:49:57;98501.09;;;20.04;84.94
47430;BME280;33181;49.246;7.372;2022-09-03T14:55:24;98511.25;;;19.94;82.11
47430;BME280;33181;49.246;7.372;2022-09-03T15:04:14;98511.06;;;20.95;82.88
47430;BME280;33181;49.246;7.372;2022-09-03T15:07:17;98510.38;;;21.14;79.31
47430;BME280;33181;49.246;7.372;2022-09-03T15:13:11;98514.78;;;21.90;79.17
47430;BME280;33181;49.246;7.372;2022-09-03T15:31:23;98513.75;;;21.84;74.97
47430;BME280;33181;49.246;7.372;2022-09-03T15:34:17;98508.47;;;22.04;74.40
47430;BME280;33181;49.246;7.372;2022-09-03T15:36:53;98502.75;;;22.20;72.91
47430;BME280;33181;49.246;7.372;2022-09-03T15:39:34;98502.34;;;22.30;71.13
47430;BME280;33181;49.246;7.372;2022-09-03T15:42:16;98502.13;;;22.38;71.39
47430;BME280;33181;49.246;7.372;2022-09-03T15:44:50;98501.50;;;22.30;73.14
47430;BME280;33181;49.246;7.372;2022-09-03T15:50:30;98503.66;;;21.80;75.83
47430;BME280;33181;49.246;7.372;2022-09-03T15:53:46;98512.28;;;21.75;75.37
47430;BME280;33181;49.246;7.372;2022-09-03T16:00:03;98512.94;;;21.97;79.62
47430;BME280;33181;49.246;7.372;2022-09-03T16:06:02;98518.34;;;22.04;77.44
47430;BME280;33181;49.246;7.372;2022-09-03T16:08:56;98519.31;;;21.89;76.93
47430;BME280;33181;49.246;7.372;2022-09-03T16:11:55;98518.28;;;21.90;77.95
47430;BME280;33181;49.246;7.372;2022-09-03T16:14:45;98511.94;;;21.98;77.45
47430;BME280;33181;49.246;7.372;2022-09-03T16:17:28;98512.13;;;22.03;77.65
47430;BME280;33181;49.246;7.372;2022-09-03T16:20:32;98514.63;;;21.98;77.80
47430;BME280;33181;49.246;7.372;2022-09-03T16:23:14;98508.22;;;21.92;78.15
47430;BME280;33181;49.246;7.372;2022-09-03T16:26:06;98507.97;;;21.81;77.85
47430;BME280;33181;49.246;7.372;2022-09-03T16:29:16;98504.91;;;21.90;77.98
47430;BME280;33181;49.246;7.372;2022-09-03T16:34:54;98498.75;;;21.90;76.97
47430;BME280;33181;49.246;7.372;2022-09-03T16:38:17;98493.81;;;21.87;77.95
47430;BME280;33181;49.246;7.372;2022-09-03T16:40:36;98491.78;;;21.95;79.07
47430;BME280;33181;49.246;7.372;2022-09-03T16:46:36;98484.00;;;22.20;79.30
47430;BME280;33181;49.246;7.372;2022-09-03T16:53:01;98487.09;;;22.44;77.53
47430;BME280;33181;49.246;7.372;2022-09-03T17:05:02;98490.41;;;22.33;79.08